Time;durP1;ratioP1;P1;durP2;ratioP2;P2;SDS_P1;SDS_P2;PMS_P1;PMS_P2;Temp;Humidity;BMP_temperature;BMP_pressure;BME280_temperature;BME280_humidity;BME280_pressure;Samples;Min_cycle;Max_cycle;Signal;HPM_P1;HPM_P2
2023/12/29 00:02:00;;;;;;;3.80;1.83;;;5.40;69.70;;;;;;5069651;28;19943;-70
2023/12/29 00:04:26;;;;;;;;;;;5.40;69.90;;;;;;5072730;28;20033;-70
2023/12/29 00:06:52;;;;;;;2.17;1.60;;;5.30;69.90;;;;;;5053930;28;19948;-70
2023/12/29 00:09:21;;;;;;;3.45;2.10;;;5.40;70.00;;;;;;5052304;28;20041;-70
2023/12/29 00:11:49;;;;;;;3.03;1.52;;;5.30;70.30;;;;;;5071464;28;20347;-72
2023/12/29 00:14:16;;;;;;;4.55;2.75;;;5.30;70.20;;;;;;5070745;28;20413;-72
2023/12/29 00:16:43;;;;;;;;;;;5.30;70.40;;;;;;5071340;28;20507;-73
2023/12/29 00:19:10;;;;;;;5.50;3.63;;;5.30;70.40;;;;;;5060470;28;19970;-73
2023/12/29 00:21:37;;;;;;;3.15;1.58;;;5.20;70.20;;;;;;5051435;28;20029;-73
2023/12/29 00:24:03;;;;;;;;;;;5.30;70.60;;;;;;5051064;28;20041;-73
2023/12/29 00:26:29;;;;;;;8.93;4.32;;;5.20;70.20;;;;;;5064106;28;19920;-72
2023/12/29 00:28:55;;;;;;;5.57;2.83;;;5.20;70.30;;;;;;5067340;28;20048;-73
2023/12/29 00:31:21;;;;;;;7.30;3.85;;;5.30;70.70;;;;;;5072938;28;20040;-73
2023/12/29 00:33:51;;;;;;;6.03;3.15;;;5.30;70.80;;;;;;5067863;28;20036;-72
2023/12/29 00:36:19;;;;;;;4.90;2.85;;;5.20;70.50;;;;;;5071566;28;20044;-73
2023/12/29 00:38:46;;;;;;;3.70;2.28;;;5.20;70.50;;;;;;5063223;28;20036;-72
2023/12/29 00:41:12;;;;;;;;;;;5.30;70.70;;;;;;5071954;28;20032;-73
2023/12/29 00:43:38;;;;;;;7.30;2.28;;;5.30;70.50;;;;;;5070468;28;20380;-73
2023/12/29 00:46:05;;;;;;;9.20;3.75;;;5.40;70.80;;;;;;5071482;28;20035;-73
2023/12/29 00:48:32;;;;;;;5.93;4.18;;;5.40;70.20;;;;;;5053727;28;20103;-73
2023/12/29 00:51:01;;;;;;;7.03;3.78;;;5.50;70.70;;;;;;5070604;28;20029;-72
2023/12/29 00:53:27;;;;;;;11.98;5.20;;;5.50;70.80;;;;;;5069953;28;20486;-72
2023/12/29 00:55:53;;;;;;;15.52;4.97;;;5.50;71.10;;;;;;5070051;28;20032;-72
2023/12/29 00:58:19;;;;;;;6.30;3.83;;;5.50;71.00;;;;;;5071767;28;20098;-73
2023/12/29 01:00:45;;;;;;;9.20;4.15;;;5.50;71.10;;;;;;5070996;28;20032;-73
2023/12/29 01:03:11;;;;;;;9.98;3.00;;;5.50;71.10;;;;;;5071771;28;20144;-73
2023/12/29 01:05:37;;;;;;;6.97;3.65;;;5.60;71.10;;;;;;5069130;28;20040;-72
2023/12/29 01:08:03;;;;;;;6.35;3.47;;;5.60;70.90;;;;;;5065551;28;20057;-73
2023/12/29 01:10:29;;;;;;;;;;;5.60;70.20;;;;;;5070879;28;20408;-72
2023/12/29 01:12:55;;;;;;;13.20;3.75;;;5.70;70.80;;;;;;5070444;28;19916;-73
2023/12/29 01:15:21;;;;;;;4.05;2.65;;;5.70;70.90;;;;;;5071248;28;20041;-73
2023/12/29 01:17:47;;;;;;;6.13;3.28;;;5.70;71.10;;;;;;5071568;28;20047;-73
2023/12/29 01:20:13;;;;;;;4.15;2.13;;;5.70;71.20;;;;;;5069762;28;20032;-72
2023/12/29 01:22:39;;;;;;;12.55;1.63;;;5.70;71.20;;;;;;5072346;28;20027;-73
2023/12/29 01:25:06;;;;;;;3.17;1.80;;;5.70;71.00;;;;;;5073901;28;20045;-73
2023/12/29 01:27:32;;;;;;;;;;;5.80;70.40;;;;;;5074465;28;20371;-72
2023/12/29 01:29:59;;;;;;;11.70;3.33;;;5.80;70.80;;;;;;5073825;28;19930;-73
2023/12/29 01:32:26;;;;;;;7.45;2.03;;;5.80;71.00;;;;;;5073033;28;20040;-72
2023/12/29 01:35:10;;;;;;;;;;;5.90;71.80;;;;;;5069059;28;20037;-73
2023/12/29 01:37:36;;;;;;;2.55;1.17;;;5.90;71.20;;;;;;5069845;28;19916;-73
2023/12/29 01:40:03;;;;;;;2.42;1.42;;;6.00;71.00;;;;;;5070644;28;20083;-73
2023/12/29 01:42:29;;;;;;;6.63;2.55;;;6.10;70.50;;;;;;5054348;28;20052;-73
2023/12/29 01:44:55;;;;;;;5.35;1.42;;;6.10;71.10;;;;;;5054976;28;20049;-73
2023/12/29 01:47:23;;;;;;;4.13;1.83;;;6.20;71.50;;;;;;5052329;28;20106;-72
2023/12/29 01:49:50;;;;;;;5.00;2.75;;;6.20;71.40;;;;;;5053821;28;20037;-73
2023/12/29 01:52:27;;;;;;;6.13;2.92;;;6.20;71.40;;;;;;5052321;28;20383;-72
2023/12/29 01:54:54;;;;;;;7.50;2.97;;;6.20;71.40;;;;;;5050902;28;20045;-72
2023/12/29 01:57:21;;;;;;;6.20;2.17;;;6.30;71.20;;;;;;5049693;28;20026;-73
2023/12/29 01:59:48;;;;;;;2.88;1.38;;;6.30;71.10;;;;;;5033448;28;20598;-72
2023/12/29 02:02:15;;;;;;;3.00;1.95;;;6.30;71.50;;;;;;5033768;28;20042;-72
2023/12/29 02:04:42;;;;;;;7.78;3.08;;;6.30;71.20;;;;;;5043949;28;20064;-72
2023/12/29 02:07:08;;;;;;;6.72;4.10;;;6.40;71.30;;;;;;5053631;28;20088;-73
2023/12/29 02:09:34;;;;;;;5.82;2.50;;;6.40;71.30;;;;;;5052610;28;20037;-72
2023/12/29 02:12:01;;;;;;;4.30;2.22;;;6.40;70.80;;;;;;5050682;28;20040;-72
2023/12/29 02:14:27;;;;;;;4.13;1.70;;;6.50;71.60;;;;;;5052962;28;20041;-72
2023/12/29 02:17:12;;;;;;;;;;;6.40;71.10;;;;;;5053289;28;20037;-72
2023/12/29 02:19:57;;;;;;;4.63;2.35;;;6.50;71.40;;;;;;5052853;28;19924;-72
2023/12/29 02:22:23;;;;;;;6.43;2.70;;;6.50;71.20;;;;;;5050485;28;20029;-73
2023/12/29 02:24:50;;;;;;;4.07;1.80;;;6.50;71.30;;;;;;5044350;28;20029;-73
2023/12/29 02:28:05;;;;;;;3.95;2.15;;;6.50;70.70;;;;;;5051183;28;20037;-72
2023/12/29 02:30:51;;;;;;;1.77;1.23;;;6.60;71.40;;;;;;5051687;28;20517;-72
2023/12/29 02:33:21;;;;;;;3.03;1.08;;;6.60;71.40;;;;;;5052667;28;20051;-72
2023/12/29 02:35:52;;;;;;;2.45;0.82;;;6.60;71.30;;;;;;5035458;28;20490;-73
2023/12/29 02:38:18;;;;;;;2.72;1.50;;;6.70;71.30;;;;;;5050735;28;20087;-73
2023/12/29 02:40:46;;;;;;;;;;;6.70;71.40;;;;;;5046767;28;20538;-72
2023/12/29 02:43:12;;;;;;;;;;;6.80;71.20;;;;;;5034162;28;19964;-73
2023/12/29 02:45:38;;;;;;;2.33;1.13;;;6.80;71.20;;;;;;5032283;28;20484;-73
2023/12/29 02:48:04;;;;;;;1.23;0.68;;;6.80;71.00;;;;;;5051901;28;20061;-72
2023/12/29 02:50:30;;;;;;;2.70;1.45;;;6.80;70.50;;;;;;5041522;28;20094;-74
2023/12/29 02:52:56;;;;;;;0.95;0.80;;;6.90;71.10;;;;;;5048301;28;20033;-72
2023/12/29 02:55:22;;;;;;;6.82;3.90;;;6.90;71.60;;;;;;5035144;28;20147;-72
2023/12/29 02:57:48;;;;;;;2.88;1.98;;;6.90;72.40;;;;;;5053422;28;20029;-72
2023/12/29 03:00:15;;;;;;;5.20;2.70;;;6.90;72.20;;;;;;5052336;28;20067;-73
2023/12/29 03:02:41;;;;;;;;;;;6.90;72.20;;;;;;5053213;28;20147;-72
2023/12/29 03:05:07;;;;;;;6.07;2.42;;;6.90;72.40;;;;;;5052457;28;20386;-73
2023/12/29 03:07:33;;;;;;;;;;;6.90;72.10;;;;;;5053375;28;20087;-73
2023/12/29 03:09:59;;;;;;;4.93;1.90;;;6.90;71.90;;;;;;5050631;28;20313;-72
2023/12/29 03:12:25;;;;;;;6.90;2.10;;;6.90;71.70;;;;;;5051228;28;20037;-73
2023/12/29 03:14:51;;;;;;;3.58;1.13;;;6.90;71.60;;;;;;5051732;28;20453;-73
2023/12/29 03:17:17;;;;;;;4.40;2.42;;;6.90;71.40;;;;;;5051890;28;20166;-73
2023/12/29 03:19:43;;;;;;;1.20;0.55;;;7.00;71.30;;;;;;5052613;28;20033;-72
2023/12/29 03:22:09;;;;;;;5.38;2.33;;;7.00;71.30;;;;;;5051922;28;20048;-73
2023/12/29 03:24:36;;;;;;;3.17;0.88;;;7.00;71.40;;;;;;5047799;28;20045;-73
2023/12/29 03:27:02;;;;;;;2.10;1.13;;;6.90;71.40;;;;;;5052730;28;20060;-73
2023/12/29 03:29:28;;;;;;;5.03;1.83;;;6.90;71.60;;;;;;5053233;28;20037;-72
2023/12/29 03:31:54;;;;;;;1.52;0.80;;;6.90;71.80;;;;;;5051741;28;20029;-73
2023/12/29 03:34:20;;;;;;;1.73;0.80;;;6.90;71.70;;;;;;5051038;28;20037;-73
2023/12/29 03:36:46;;;;;;;1.85;1.10;;;6.90;71.60;;;;;;5041601;28;20033;-73
2023/12/29 03:39:12;;;;;;;2.60;0.88;;;6.90;71.70;;;;;;5049070;28;20045;-73
2023/12/29 03:41:38;;;;;;;0.85;0.77;;;6.90;71.80;;;;;;5050641;28;20052;-72
2023/12/29 03:44:06;;;;;;;7.38;4.20;;;6.90;72.00;;;;;;5051958;28;20045;-72
2023/12/29 03:46:32;;;;;;;8.50;1.95;;;6.80;72.10;;;;;;5033899;28;20037;-73
2023/12/29 03:48:59;;;;;;;4.05;1.65;;;6.70;72.40;;;;;;5049094;28;20120;-72
2023/12/29 03:51:24;;;;;;;;;;;6.60;72.50;;;;;;5051142;28;20040;-72
2023/12/29 03:53:50;;;;;;;3.50;1.52;;;6.60;72.50;;;;;;5052570;28;20285;-72
2023/12/29 03:56:18;;;;;;;3.08;1.02;;;6.50;72.30;;;;;;5050890;28;20029;-72
2023/12/29 03:58:45;;;;;;;2.40;1.30;;;6.50;72.20;;;;;;5030741;28;20505;-72
2023/12/29 04:01:33;;;;;;;1.90;1.23;;;6.40;71.70;;;;;;5048387;28;20053;-73
2023/12/29 04:03:59;;;;;;;0.40;0.30;;;6.30;72.50;;;;;;5051186;28;20033;-72
2023/12/29 04:06:25;;;;;;;1.10;0.60;;;6.40;72.40;;;;;;5052009;28;20056;-72
2023/12/29 04:08:51;;;;;;;0.73;0.40;;;6.40;72.30;;;;;;5051008;28;20037;-72
2023/12/29 04:11:17;;;;;;;0.90;0.90;;;6.30;72.40;;;;;;5051251;28;20037;-72
2023/12/29 04:13:43;;;;;;;1.67;1.08;;;6.20;72.10;;;;;;5049604;28;20451;-72
2023/12/29 04:16:09;;;;;;;1.58;0.73;;;6.20;72.10;;;;;;5030330;28;20038;-73
2023/12/29 04:18:35;;;;;;;3.05;1.50;;;6.20;72.10;;;;;;5030952;28;20033;-72
2023/12/29 04:21:02;;;;;;;2.67;2.15;;;6.20;72.00;;;;;;5030518;28;20037;-72
2023/12/29 04:23:28;;;;;;;1.55;1.10;;;6.20;71.90;;;;;;5035509;28;20065;-73
2023/12/29 04:25:54;;;;;;;1.77;0.95;;;6.20;71.80;;;;;;5049329;28;20398;-72
2023/12/29 04:28:20;;;;;;;4.15;1.77;;;6.20;71.90;;;;;;5051098;28;20441;-73
2023/12/29 04:30:46;;;;;;;5.15;2.55;;;6.20;71.80;;;;;;5049953;28;20036;-72
2023/12/29 04:33:12;;;;;;;3.38;1.75;;;6.20;71.70;;;;;;5049685;28;20063;-72
2023/12/29 04:35:38;;;;;;;2.80;1.23;;;6.20;71.90;;;;;;5051199;28;20127;-73
2023/12/29 04:38:06;;;;;;;1.98;1.42;;;6.20;72.10;;;;;;5050591;28;20112;-73
2023/12/29 04:40:32;;;;;;;0.93;0.50;;;6.20;71.80;;;;;;5046889;28;20513;-72
2023/12/29 04:42:58;;;;;;;2.67;1.25;;;6.10;71.70;;;;;;5033974;28;20467;-72
2023/12/29 04:45:24;;;;;;;0.85;0.57;;;6.10;71.70;;;;;;5051809;28;20033;-73
2023/12/29 04:47:50;;;;;;;1.35;0.73;;;6.10;71.70;;;;;;5050731;28;20040;-72
2023/12/29 04:50:16;;;;;;;1.10;0.90;;;6.10;71.50;;;;;;5048761;28;20095;-72
2023/12/29 04:52:42;;;;;;;1.15;0.60;;;6.10;71.60;;;;;;5050265;28;20409;-72
2023/12/29 04:55:08;;;;;;;2.67;1.83;;;6.10;71.50;;;;;;5053576;28;20057;-72
2023/12/29 04:57:34;;;;;;;0.63;0.60;;;6.10;71.40;;;;;;5052473;28;20064;-73
2023/12/29 05:00:01;;;;;;;0.47;0.30;;;6.20;71.40;;;;;;5054433;28;20040;-73
2023/12/29 05:02:27;;;;;;;1.13;0.73;;;6.20;71.20;;;;;;5053740;28;20039;-72
2023/12/29 05:04:53;;;;;;;0.82;0.32;;;6.20;71.20;;;;;;5055891;28;20032;-73
2023/12/29 05:07:19;;;;;;;3.28;1.70;;;6.20;71.20;;;;;;5054134;28;20048;-72
2023/12/29 05:09:45;;;;;;;0.95;0.63;;;6.20;71.20;;;;;;5055299;28;20041;-73
2023/12/29 05:12:11;;;;;;;1.23;0.88;;;6.20;71.20;;;;;;5054342;28;20040;-73
2023/12/29 05:14:37;;;;;;;1.35;0.90;;;6.30;71.30;;;;;;5052847;28;20540;-73
2023/12/29 05:17:03;;;;;;;1.38;0.93;;;6.30;71.20;;;;;;5053672;28;20033;-72
2023/12/29 05:19:29;;;;;;;3.45;1.08;;;6.30;71.20;;;;;;5054146;28;20041;-71
2023/12/29 05:21:55;;;;;;;1.35;0.88;;;6.30;71.40;;;;;;5054641;28;20533;-72
2023/12/29 05:24:21;;;;;;;1.27;0.73;;;6.30;71.40;;;;;;5054059;28;20037;-73
2023/12/29 05:26:47;;;;;;;1.55;1.27;;;6.40;71.40;;;;;;5040241;28;20087;-72
2023/12/29 05:29:14;;;;;;;3.75;1.92;;;6.40;71.40;;;;;;5048055;28;20044;-72
2023/12/29 05:31:40;;;;;;;5.93;2.13;;;6.40;71.40;;;;;;5053019;28;20045;-73
2023/12/29 05:34:07;;;;;;;1.08;0.85;;;6.50;71.50;;;;;;5053693;28;20033;-72
2023/12/29 05:36:36;;;;;;;0.65;0.50;;;6.40;71.40;;;;;;5053663;28;20079;-73
2023/12/29 05:39:03;;;;;;;9.10;3.90;;;6.40;71.60;;;;;;5052677;28;20036;-72
2023/12/29 05:41:30;;;;;;;4.72;3.00;;;6.40;71.70;;;;;;5048678;28;20393;-72
2023/12/29 05:43:57;;;;;;;9.80;6.30;;;6.30;71.50;;;;;;5052207;28;20035;-72
2023/12/29 05:46:24;;;;;;;6.60;3.08;;;6.30;71.70;;;;;;5051660;28;20544;-72
2023/12/29 05:48:52;;;;;;;2.85;2.17;;;6.30;71.70;;;;;;5053442;28;20071;-72
2023/12/29 05:51:18;;;;;;;1.92;0.65;;;6.20;71.90;;;;;;5052771;28;20041;-72
2023/12/29 05:53:44;;;;;;;2.75;2.25;;;6.00;72.10;;;;;;5054798;28;20096;-73
2023/12/29 05:56:13;;;;;;;4.00;1.27;;;5.90;72.50;;;;;;5052091;28;20979;-72
2023/12/29 05:58:59;;;;;;;0.32;0.30;;;5.80;72.50;;;;;;5053990;28;20040;-72
2023/12/29 06:01:25;;;;;;;1.88;0.57;;;5.70;72.60;;;;;;5038279;28;20033;-73
2023/12/29 06:03:51;;;;;;;1.75;0.63;;;5.60;72.60;;;;;;5044552;28;20371;-73
2023/12/29 06:06:17;;;;;;;0.57;0.50;;;5.50;72.60;;;;;;5052171;28;20060;-73
2023/12/29 06:08:43;;;;;;;0.47;0.45;;;5.50;72.70;;;;;;5054167;28;20041;-73
2023/12/29 06:11:15;;;;;;;2.85;0.50;;;5.40;72.70;;;;;;5052473;28;20066;-72
2023/12/29 06:13:43;;;;;;;0.90;0.40;;;5.40;72.60;;;;;;5052683;28;20055;-72
2023/12/29 06:16:09;;;;;;;0.30;0.30;;;5.40;72.60;;;;;;5052448;28;20033;-72
2023/12/29 06:18:35;;;;;;;1.15;0.68;;;5.30;72.40;;;;;;5048243;28;20045;-73
2023/12/29 06:21:03;;;;;;;2.33;1.40;;;5.20;72.10;;;;;;5051517;28;20040;-73
2023/12/29 06:23:29;;;;;;;0.45;0.32;;;5.20;71.40;;;;;;5052872;28;20033;-72
2023/12/29 06:25:55;;;;;;;5.70;3.78;;;5.20;72.20;;;;;;5052359;28;20037;-73
2023/12/29 06:28:21;;;;;;;11.60;3.72;;;5.20;72.20;;;;;;5051578;28;20064;-72
2023/12/29 06:30:47;;;;;;;3.90;2.15;;;5.20;72.20;;;;;;5052652;28;20033;-72
2023/12/29 06:33:13;;;;;;;;;;;5.10;72.20;;;;;;5042274;28;20065;-73
2023/12/29 06:35:39;;;;;;;5.93;2.33;;;5.10;72.10;;;;;;5045817;28;19923;-72
2023/12/29 06:38:05;;;;;;;1.33;1.00;;;5.10;72.20;;;;;;5053718;28;20029;-73
2023/12/29 06:40:31;;;;;;;2.33;1.73;;;5.00;72.10;;;;;;5053279;28;20029;-72
2023/12/29 06:42:57;;;;;;;4.03;1.17;;;5.00;72.20;;;;;;5053865;28;20029;-73
2023/12/29 06:45:23;;;;;;;1.98;1.08;;;4.90;72.30;;;;;;5050859;28;20060;-72
2023/12/29 06:47:49;;;;;;;4.82;2.80;;;4.90;72.20;;;;;;5030842;28;20029;-73
2023/12/29 06:50:15;;;;;;;3.95;2.17;;;4.80;72.10;;;;;;5052182;28;20041;-72
2023/12/29 06:52:41;;;;;;;3.88;2.05;;;4.70;72.10;;;;;;5050584;28;20390;-72
2023/12/29 06:55:08;;;;;;;3.38;1.60;;;4.60;72.10;;;;;;5052101;28;20041;-72
2023/12/29 06:57:34;;;;;;;4.65;2.60;;;4.60;71.80;;;;;;5053323;28;20033;-73
2023/12/29 07:00:00;;;;;;;5.38;2.05;;;4.50;72.50;;;;;;5052223;28;20087;-72
2023/12/29 07:02:26;;;;;;;11.50;3.15;;;4.50;72.40;;;;;;5049975;28;20037;-73
2023/12/29 07:04:52;;;;;;;4.47;3.15;;;4.50;72.50;;;;;;5051581;28;20382;-72
2023/12/29 07:07:18;;;;;;;11.10;5.70;;;4.50;72.50;;;;;;5031571;28;20111;-72
2023/12/29 07:09:44;;;;;;;9.10;2.92;;;4.50;72.50;;;;;;5046344;28;20063;-72
2023/12/29 07:12:10;;;;;;;6.30;3.33;;;4.40;72.90;;;;;;5051142;28;20482;-72
2023/12/29 07:14:36;;;;;;;4.10;2.35;;;4.40;73.10;;;;;;5051878;28;20033;-72
2023/12/29 07:17:03;;;;;;;8.68;3.92;;;4.40;73.20;;;;;;5034792;28;20510;-73
2023/12/29 07:19:36;;;;;;;5.85;3.25;;;4.40;73.00;;;;;;5050697;28;20036;-73
2023/12/29 07:22:21;;;;;;;8.55;3.92;;;4.40;73.10;;;;;;5050694;28;20054;-72
2023/12/29 07:24:47;;;;;;;10.82;5.13;;;4.50;73.30;;;;;;5050300;28;20037;-73
2023/12/29 07:27:13;;;;;;;6.05;3.30;;;4.50;73.20;;;;;;5052591;28;20092;-73
2023/12/29 07:29:39;;;;;;;6.03;3.33;;;4.50;73.20;;;;;;5051757;28;20049;-73
2023/12/29 07:32:05;;;;;;;6.28;3.35;;;4.60;72.80;;;;;;5052397;28;20490;-72
2023/12/29 07:34:31;;;;;;;10.57;5.88;;;4.70;71.90;;;;;;5050256;28;20108;-73
2023/12/29 07:36:58;;;;;;;11.52;5.50;;;4.80;72.40;;;;;;5051949;28;20486;-73
2023/12/29 07:39:25;;;;;;;8.75;6.20;;;5.00;71.50;;;;;;5052300;28;20473;-72
2023/12/29 07:41:51;;;;;;;12.90;4.75;;;5.10;71.40;;;;;;5048620;28;20094;-72
2023/12/29 07:44:17;;;;;;;7.35;3.80;;;5.20;71.80;;;;;;5051239;28;20364;-72
2023/12/29 07:46:44;;;;;;;9.60;4.38;;;5.30;70.80;;;;;;5034580;28;20033;-72
2023/12/29 07:49:11;;;;;;;10.38;4.57;;;5.40;71.40;;;;;;5051304;28;20094;-72
2023/12/29 07:51:59;;;;;;;9.05;5.07;;;5.50;71.30;;;;;;5050679;28;20063;-73
2023/12/29 07:54:25;;;;;;;9.00;3.63;;;5.50;71.10;;;;;;5048954;28;20025;-73
2023/12/29 07:56:51;;;;;;;4.85;3.30;;;5.60;70.70;;;;;;5051801;28;20083;-72
2023/12/29 07:59:17;;;;;;;5.88;2.33;;;5.70;70.80;;;;;;5049763;28;20033;-72
2023/12/29 08:01:43;;;;;;;6.00;2.67;;;5.80;70.60;;;;;;5051611;28;20482;-73
2023/12/29 08:04:09;;;;;;;9.27;2.78;;;5.90;71.50;;;;;;5052394;28;20041;-72
2023/12/29 08:06:38;;;;;;;7.93;2.58;;;6.00;70.40;;;;;;5049614;28;20072;-73
2023/12/29 08:09:05;;;;;;;6.95;2.63;;;6.00;70.30;;;;;;5050408;28;20501;-72
2023/12/29 08:11:31;;;;;;;6.28;4.00;;;6.10;70.60;;;;;;5051235;28;20087;-73
2023/12/29 08:13:57;;;;;;;4.93;3.50;;;6.20;70.50;;;;;;5049457;28;20224;-73
2023/12/29 08:16:23;;;;;;;5.65;3.40;;;6.40;70.40;;;;;;5051830;28;20041;-73
2023/12/29 08:18:50;;;;;;;6.30;3.22;;;6.50;70.10;;;;;;5050893;28;20052;-72
2023/12/29 08:21:34;;;;;;;4.93;3.35;;;6.60;69.60;;;;;;5051414;28;20036;-73
2023/12/29 08:24:01;;;;;;;6.80;4.50;;;6.70;69.60;;;;;;5051129;28;20033;-72
2023/12/29 08:26:27;;;;;;;;;;;6.80;69.30;;;;;;5050860;28;20068;-73
2023/12/29 08:28:53;;;;;;;12.00;5.80;;;6.90;69.50;;;;;;5051537;28;19996;-73
2023/12/29 08:31:19;;;;;;;6.65;3.15;;;7.00;69.00;;;;;;5052829;28;20090;-72
2023/12/29 08:33:46;;;;;;;3.03;1.77;;;7.10;68.80;;;;;;5054706;28;20090;-72
2023/12/29 08:36:12;;;;;;;8.55;2.63;;;7.20;68.90;;;;;;5055910;28;20376;-72
2023/12/29 08:38:39;;;;;;;5.90;3.17;;;7.40;68.30;;;;;;5055850;28;20036;-72
2023/12/29 08:41:05;;;;;;;5.05;3.15;;;7.60;67.40;;;;;;5052746;28;20040;-72
2023/12/29 08:43:31;;;;;;;3.83;2.25;;;7.80;67.80;;;;;;5054260;28;20060;-72
2023/12/29 08:45:57;;;;;;;7.95;3.47;;;7.90;67.40;;;;;;5053837;28;20033;-73
2023/12/29 08:48:25;;;;;;;4.35;2.47;;;8.10;67.30;;;;;;5053198;28;20433;-73
2023/12/29 08:50:51;;;;;;;9.23;5.85;;;8.30;67.20;;;;;;5055044;28;20033;-73
2023/12/29 08:53:17;;;;;;;7.28;5.15;;;8.50;66.90;;;;;;5055730;28;20040;-72
2023/12/29 08:55:43;;;;;;;10.27;6.45;;;8.60;66.40;;;;;;5054245;28;20395;-73
2023/12/29 08:58:10;;;;;;;11.55;6.30;;;8.70;66.10;;;;;;5054198;28;20383;-72
2023/12/29 09:00:36;;;;;;;9.27;4.80;;;8.90;65.80;;;;;;5054476;28;20033;-72
2023/12/29 09:03:02;;;;;;;5.25;2.92;;;9.00;65.40;;;;;;5050504;28;20084;-73
2023/12/29 09:05:28;;;;;;;12.07;6.50;;;9.10;65.30;;;;;;5053530;28;20041;-72
2023/12/29 09:07:55;;;;;;;8.05;4.78;;;10.00;63.60;;;;;;5054590;28;20052;-73
2023/12/29 09:10:22;;;;;;;9.93;4.40;;;11.70;59.20;;;;;;5053409;28;20033;-73
2023/12/29 09:12:49;;;;;;;11.65;5.05;;;13.10;54.90;;;;;;5049278;28;20542;-72
2023/12/29 09:15:16;;;;;;;5.93;4.53;;;12.70;55.00;;;;;;5048382;28;20049;-72
2023/12/29 09:17:42;;;;;;;3.30;2.00;;;12.80;55.70;;;;;;5033992;28;20061;-73
2023/12/29 09:20:09;;;;;;;3.80;2.13;;;12.90;56.20;;;;;;5046826;28;20044;-73
2023/12/29 09:22:35;;;;;;;6.75;2.22;;;13.60;54.10;;;;;;5055053;28;20033;-72
2023/12/29 09:25:02;;;;;;;4.30;2.03;;;13.90;53.50;;;;;;5055554;28;20470;-73
2023/12/29 09:27:28;;;;;;;6.00;2.70;;;13.60;53.70;;;;;;5053913;28;20041;-72
2023/12/29 09:29:54;;;;;;;4.55;2.45;;;13.20;54.50;;;;;;5036324;28;20033;-73
2023/12/29 09:32:20;;;;;;;10.57;2.58;;;13.00;55.50;;;;;;5051713;28;20063;-73
2023/12/29 09:34:46;;;;;;;2.03;1.00;;;13.10;55.60;;;;;;5054811;28;20040;-73
2023/12/29 09:37:12;;;;;;;1.40;0.50;;;13.70;53.50;;;;;;5051649;28;20033;-73
2023/12/29 09:39:38;;;;;;;1.23;0.68;;;13.60;52.20;;;;;;5053844;28;20119;-73
2023/12/29 09:42:06;;;;;;;0.98;0.60;;;13.60;51.50;;;;;;5068340;28;20040;-72
2023/12/29 09:44:32;;;;;;;0.85;0.77;;;13.80;51.20;;;;;;5074999;28;20041;-73
2023/12/29 09:47:04;;;;;;;1.25;0.70;;;14.40;48.60;;;;;;5071985;28;20033;-73
2023/12/29 09:49:49;;;;;;;1.15;1.10;;;15.40;46.60;;;;;;5069411;28;20112;-73
2023/12/29 09:52:16;;;;;;;1.13;0.75;;;15.80;45.90;;;;;;5068661;28;20056;-73
2023/12/29 09:54:43;;;;;;;0.30;0.30;;;15.80;44.40;;;;;;5071590;28;20522;-73
2023/12/29 09:57:09;;;;;;;0.50;0.20;;;15.40;45.30;;;;;;5069514;28;20093;-72
2023/12/29 09:59:37;;;;;;;0.77;0.40;;;15.50;44.70;;;;;;5074843;28;20028;-72
2023/12/29 10:02:05;;;;;;;0.75;0.40;;;15.50;44.50;;;;;;5072638;28;20029;-72
2023/12/29 10:04:32;;;;;;;4.18;1.02;;;15.40;45.70;;;;;;5055941;28;20111;-72
2023/12/29 10:07:04;;;;;;;14.25;0.95;;;15.30;45.30;;;;;;5046808;28;20122;-72
2023/12/29 10:09:32;;;;;;;0.63;0.55;;;15.80;43.60;;;;;;5071092;28;20029;-73
2023/12/29 10:12:00;;;;;;;2.20;1.52;;;16.60;42.00;;;;;;5072721;28;20123;-73
2023/12/29 10:14:37;;;;;;;0.50;0.32;;;16.90;41.00;;;;;;5072883;28;20409;-72
2023/12/29 10:17:12;;;;;;;0.85;0.63;;;16.70;42.00;;;;;;5072785;28;20032;-73
2023/12/29 10:20:19;;;;;;;2.80;1.73;;;16.80;41.30;;;;;;5071871;28;20068;-72
2023/12/29 10:23:07;;;;;;;1.65;1.08;;;17.70;40.50;;;;;;5071335;28;20037;-73
2023/12/29 10:25:33;;;;;;;0.30;0.20;;;17.70;38.00;;;;;;5071200;28;20037;-74
2023/12/29 10:28:00;;;;;;;3.92;0.73;;;17.80;38.20;;;;;;5055836;28;20421;-72
2023/12/29 10:30:26;;;;;;;;;;;17.80;39.00;;;;;;5073633;28;20060;-73
2023/12/29 10:32:53;;;;;;;0.40;0.25;;;17.70;38.40;;;;;;5072782;28;19913;-71
2023/12/29 10:35:19;;;;;;;0.85;0.60;;;17.70;37.60;;;;;;5072321;28;20060;-71
2023/12/29 10:37:45;;;;;;;;;;;17.70;37.10;;;;;;5069085;28;20028;-72
2023/12/29 10:40:18;;;;;;;0.68;0.50;;;17.10;38.20;;;;;;5054615;28;20065;-72
2023/12/29 10:43:08;;;;;;;0.28;0.20;;;17.40;38.00;;;;;;5070599;28;20025;-72
2023/12/29 10:45:36;;;;;;;0.85;0.35;;;17.40;36.90;;;;;;5072244;28;20044;-71
2023/12/29 10:48:03;;;;;;;0.60;0.35;;;16.90;39.00;;;;;;5072436;28;20029;-72
2023/12/29 10:50:29;;;;;;;0.88;0.32;;;16.80;37.50;;;;;;5071592;28;20029;-71
2023/12/29 10:53:17;;;;;;;0.28;0.10;;;16.50;37.90;;;;;;5071848;28;20086;-73
2023/12/29 10:55:43;;;;;;;0.30;0.30;;;16.90;38.40;;;;;;5050617;28;20025;-72
2023/12/29 10:58:09;;;;;;;0.40;0.30;;;17.20;37.20;;;;;;5065971;28;20032;-72
2023/12/29 11:00:35;;;;;;;0.25;0.17;;;16.80;37.20;;;;;;5069372;28;20036;-72
2023/12/29 11:03:01;;;;;;;0.10;0.10;;;16.40;38.30;;;;;;5071866;28;20099;-72
2023/12/29 11:05:28;;;;;;;0.10;0.10;;;16.10;38.40;;;;;;5071884;28;20032;-72
2023/12/29 11:07:55;;;;;;;0.57;0.55;;;16.30;38.20;;;;;;5072231;28;20053;-71
2023/12/29 11:10:22;;;;;;;0.10;0.10;;;16.30;38.50;;;;;;5067961;28;20032;-71
2023/12/29 11:12:49;;;;;;;0.10;0.10;;;16.00;38.50;;;;;;5071229;28;20036;-72
2023/12/29 11:15:16;;;;;;;0.20;0.20;;;15.70;38.60;;;;;;5068187;28;20041;-72
2023/12/29 11:17:49;;;;;;;6.03;1.70;;;15.40;40.20;;;;;;5072126;28;20094;-72
2023/12/29 11:20:17;;;;;;;0.40;0.28;;;15.30;40.90;;;;;;5055097;28;20036;-71
2023/12/29 11:22:46;;;;;;;0.22;0.20;;;15.20;42.00;;;;;;5073149;28;20560;-71
2023/12/29 11:25:12;;;;;;;0.10;0.10;;;15.20;41.80;;;;;;5070302;28;20098;-71
2023/12/29 11:27:39;;;;;;;0.80;0.55;;;15.50;40.70;;;;;;5071697;28;20044;-71
2023/12/29 11:30:06;;;;;;;0.22;0.10;;;15.50;40.10;;;;;;5066805;28;20029;-72
2023/12/29 11:32:55;;;;;;;1.70;1.23;;;15.70;39.40;;;;;;5070009;28;20103;-72
2023/12/29 11:35:31;;;;;;;0.43;0.20;;;16.70;37.70;;;;;;5072501;28;20047;-71
2023/12/29 11:38:53;;;;;;;0.10;0.10;;;16.50;37.30;;;;;;5071559;28;20034;-72
2023/12/29 11:41:38;;;;;;;0.77;0.50;;;16.50;37.70;;;;;;5070730;28;20044;-72
2023/12/29 11:44:04;;;;;;;0.40;0.20;;;16.20;39.00;;;;;;5066864;28;20029;-73
2023/12/29 11:46:49;;;;;;;0.10;0.10;;;16.00;39.60;;;;;;5061795;28;20482;-72
2023/12/29 11:49:15;;;;;;;3.25;1.05;;;16.00;39.50;;;;;;5070167;28;20473;-71
2023/12/29 11:51:46;;;;;;;0.43;0.30;;;15.90;39.40;;;;;;5070740;28;20033;-72
2023/12/29 11:54:40;;;;;;;0.80;0.10;;;15.80;39.00;;;;;;5054915;28;20086;-72
2023/12/29 11:57:08;;;;;;;0.65;0.40;;;15.70;39.90;;;;;;5070178;28;20047;-73
2023/12/29 11:59:48;;;;;;;0.10;0.10;;;15.70;40.30;;;;;;5072164;28;20033;-71
2023/12/29 12:05:54;;;;;;;0.45;0.10;;;15.80;40.40;;;;;;5070313;28;20051;-72
2023/12/29 12:08:39;;;;;;;0.10;0.10;;;15.80;40.20;;;;;;5070953;28;20036;-73
2023/12/29 12:11:43;;;;;;;0.10;0.10;;;15.80;39.60;;;;;;5070416;28;20418;-72
2023/12/29 12:14:09;;;;;;;0.10;0.10;;;15.70;39.40;;;;;;5071187;28;20115;-72
2023/12/29 12:16:54;;;;;;;0.35;0.25;;;15.70;40.00;;;;;;5046775;28;20035;-71
2023/12/29 12:19:24;;;;;;;1.13;0.63;;;15.70;40.00;;;;;;5070026;28;20036;-72
2023/12/29 12:21:53;;;;;;;0.57;0.57;;;15.80;40.10;;;;;;5058985;28;20125;-72
2023/12/29 12:27:09;;;;;;;0.32;0.20;;;15.80;39.90;;;;;;5071097;28;20043;-71
2023/12/29 12:29:36;;;;;;;0.20;0.20;;;15.70;40.70;;;;;;5072495;28;20040;-72
2023/12/29 12:32:03;;;;;;;0.40;0.20;;;15.80;40.40;;;;;;5070199;28;20041;-72
2023/12/29 12:34:38;;;;;;;3.03;0.63;;;15.80;41.40;;;;;;5071608;28;20405;-72
2023/12/29 12:37:04;;;;;;;0.40;0.30;;;15.70;40.60;;;;;;5069643;28;20029;-72
2023/12/29 12:39:49;;;;;;;0.08;0.08;;;15.70;40.20;;;;;;5053423;28;20033;-72
2023/12/29 12:48:19;;;;;;;0.45;0.30;;;15.90;40.50;;;;;;5069742;28;20059;-72
2023/12/29 12:50:47;;;;;;;0.90;0.70;;;15.90;40.20;;;;;;5067026;28;20089;-72
2023/12/29 12:55:59;;;;;;;0.28;0.13;;;15.90;41.60;;;;;;5067421;28;20047;-71
2023/12/29 12:58:26;;;;;;;;;;;15.80;41.20;;;;;;5071082;28;20436;-71
2023/12/29 13:00:52;;;;;;;;;;;15.70;41.30;;;;;;5070104;28;20372;-73
2023/12/29 13:03:18;;;;;;;0.52;0.15;;;15.70;41.30;;;;;;5071514;28;19947;-72
2023/12/29 13:05:45;;;;;;;0.10;0.10;;;15.70;41.40;;;;;;5070067;28;20465;-72
2023/12/29 13:08:12;;;;;;;0.47;0.22;;;15.70;42.20;;;;;;5066546;28;20052;-72
2023/12/29 13:10:58;;;;;;;0.65;0.65;;;15.60;41.90;;;;;;5047434;28;20408;-72
2023/12/29 13:13:24;;;;;;;0.25;0.25;;;15.60;42.30;;;;;;5070461;28;20036;-72
2023/12/29 13:15:54;;;;;;;0.10;0.10;;;15.50;42.50;;;;;;5071967;28;20037;-72
2023/12/29 13:18:31;;;;;;;0.52;0.32;;;15.50;42.20;;;;;;5074160;28;20049;-72
2023/12/29 13:20:57;;;;;;;0.25;0.25;;;15.50;41.90;;;;;;5072158;28;20035;-72